createdAt,value
2022-10-27T00:01:24.887Z,90218.94
2022-10-27T00:03:52.582Z,90214.50
2022-10-27T00:06:19.322Z,90225.09
2022-10-27T00:08:46.172Z,90219.22
2022-10-27T00:11:12.942Z,90219.88
2022-10-27T00:13:39.915Z,90211.41
2022-10-27T00:16:10.829Z,90218.41
2022-10-27T00:18:37.857Z,90218.81
2022-10-27T00:21:08.102Z,90217.97
2022-10-27T00:23:35.755Z,90213.81
2022-10-27T00:26:02.830Z,90215.06
2022-10-27T00:28:30.444Z,90212.41
2022-10-27T00:31:05.963Z,90217.38
2022-10-27T00:33:33.572Z,90218.72
2022-10-27T00:36:08.374Z,90207.75
2022-10-27T00:38:35.763Z,90210.63
2022-10-27T00:41:03.001Z,90211.16
2022-10-27T00:43:32.945Z,90210.03
2022-10-27T00:46:41.345Z,90206.72
2022-10-27T00:49:14.123Z,90209.09
2022-10-27T00:51:50.515Z,90198.72
2022-10-27T00:54:20.093Z,90205.09
2022-10-27T00:56:51.053Z,90200.50
2022-10-27T00:59:19.752Z,90206.50
2022-10-27T01:01:48.717Z,90206.47
2022-10-27T01:04:20.461Z,90207.25
2022-10-27T01:06:47.330Z,90219.28
2022-10-27T01:09:14.573Z,90205.16
2022-10-27T01:11:41.425Z,90206.03
2022-10-27T01:14:08.286Z,90209.16
2022-10-27T01:16:56.488Z,90207.53
2022-10-27T01:19:29.062Z,90206.88
2022-10-27T01:22:38.633Z,90213.63
2022-10-27T01:25:23.901Z,90217.91
2022-10-27T01:28:15.623Z,90219.00
2022-10-27T01:30:54.359Z,90222.66
2022-10-27T01:33:30.695Z,90224.09
2022-10-27T01:36:06.037Z,90221.38
2022-10-27T01:38:43.374Z,90223.84
2022-10-27T01:41:23.598Z,90222.03
2022-10-27T01:43:54.961Z,90223.78
2022-10-27T01:46:21.903Z,90218.75
2022-10-27T01:48:49.359Z,90227.31
2022-10-27T01:51:16.226Z,90219.13
2022-10-27T01:53:48.702Z,90226.59
2022-10-27T01:56:46.364Z,90224.31
2022-10-27T01:59:34.799Z,90226.53
2022-10-27T02:02:04.590Z,90225.63
2022-10-27T02:04:42.072Z,90233.16
2022-10-27T02:07:14.778Z,90229.16
2022-10-27T02:09:47.138Z,90241.84
2022-10-27T02:12:23.189Z,90248.31
2022-10-27T02:14:53.415Z,90249.88
2022-10-27T02:17:23.525Z,90247.44
2022-10-27T02:19:52.880Z,90245.06
2022-10-27T02:22:20.841Z,90249.75
2022-10-27T02:24:47.747Z,90252.41
2022-10-27T02:27:34.764Z,90254.53
2022-10-27T02:30:02.651Z,90257.03
2022-10-27T02:32:30.511Z,90254.78
2022-10-27T02:34:58.408Z,90250.75
2022-10-27T02:37:37.929Z,90251.25
2022-10-27T02:40:05.345Z,90254.34
2022-10-27T02:42:32.106Z,90253.44
2022-10-27T02:44:58.946Z,90260.69
2022-10-27T02:47:25.830Z,90256.88
2022-10-27T02:49:52.551Z,90260.28
2022-10-27T02:52:19.554Z,90264.88
2022-10-27T02:54:46.425Z,90260.63
2022-10-27T02:57:13.178Z,90264.59
2022-10-27T02:59:39.949Z,90264.44
2022-10-27T03:02:06.788Z,90268.56
2022-10-27T03:04:33.591Z,90272.38
2022-10-27T03:07:00.391Z,90267.66
2022-10-27T03:09:27.234Z,90267.69
2022-10-27T03:11:54.110Z,90258.09
2022-10-27T03:14:20.939Z,90270.06
2022-10-27T03:16:47.864Z,90269.31
2022-10-27T03:19:14.611Z,90265.78
2022-10-27T03:21:41.382Z,90268.66
2022-10-27T03:24:08.210Z,90276.72
2022-10-27T03:26:34.949Z,90273.25
2022-10-27T03:29:01.786Z,90274.41
2022-10-27T03:31:29.039Z,90280.19
2022-10-27T03:33:55.797Z,90273.03
2022-10-27T03:36:22.746Z,90286.91
2022-10-27T03:38:49.615Z,90282.13
2022-10-27T03:41:16.437Z,90280.53
2022-10-27T03:43:43.244Z,90288.50
2022-10-27T03:46:10.928Z,90283.19
2022-10-27T03:48:37.998Z,90286.00
2022-10-27T03:51:04.863Z,90287.63
2022-10-27T03:53:31.624Z,90287.63
2022-10-27T03:55:58.411Z,90287.31
2022-10-27T03:58:25.223Z,90292.06
2022-10-27T04:00:52.068Z,90300.00
2022-10-27T04:03:18.904Z,90288.44
2022-10-27T04:05:50.249Z,90293.00
2022-10-27T04:08:17.024Z,90294.00
2022-10-27T04:10:43.853Z,90296.38
2022-10-27T04:13:10.724Z,90288.53
2022-10-27T04:15:37.552Z,90291.34
2022-10-27T04:18:04.667Z,90298.44
2022-10-27T04:20:31.635Z,90303.56
2022-10-27T04:22:59.927Z,90313.34
2022-10-27T04:25:27.025Z,90314.75
2022-10-27T04:28:07.649Z,90317.00
2022-10-27T04:30:34.983Z,90304.09
2022-10-27T04:33:01.884Z,90307.97
2022-10-27T04:35:29.358Z,90315.94
2022-10-27T04:37:57.036Z,90314.34
2022-10-27T04:40:24.279Z,90315.97
2022-10-27T04:42:51.903Z,90313.63
2022-10-27T04:45:19.107Z,90324.25
2022-10-27T04:47:49.031Z,90325.53
2022-10-27T04:50:17.333Z,90319.59
2022-10-27T04:52:57.562Z,90324.66
2022-10-27T04:55:25.801Z,90332.16
2022-10-27T04:57:53.273Z,90337.22
2022-10-27T05:00:20.904Z,90338.88
2022-10-27T05:02:57.478Z,90342.72
2022-10-27T05:05:26.182Z,90349.81
2022-10-27T05:07:54.992Z,90348.03
2022-10-27T05:10:22.192Z,90350.53
2022-10-27T05:12:49.224Z,90344.03
2022-10-27T05:15:16.433Z,90344.00
2022-10-27T05:17:43.326Z,90345.72
2022-10-27T05:20:10.616Z,90344.25
2022-10-27T05:22:38.453Z,90355.91
2022-10-27T05:25:07.299Z,90358.38
2022-10-27T05:27:34.072Z,90361.41
2022-10-27T05:30:00.801Z,90368.72
2022-10-27T05:32:27.613Z,90366.53
2022-10-27T05:34:54.371Z,90366.56
2022-10-27T05:37:21.338Z,90373.38
2022-10-27T05:39:48.188Z,90379.38
2022-10-27T05:42:15.066Z,90374.25
2022-10-27T05:44:41.914Z,90376.84
2022-10-27T05:47:08.879Z,90383.94
2022-10-27T05:49:35.672Z,90382.00
2022-10-27T05:52:02.390Z,90386.88
2022-10-27T05:54:29.225Z,90381.94
2022-10-27T05:56:55.932Z,90388.50
2022-10-27T05:59:22.638Z,90390.22
2022-10-27T06:01:49.529Z,90387.84
2022-10-27T06:04:16.451Z,90386.72
2022-10-27T06:06:43.256Z,90390.63
2022-10-27T06:09:10.137Z,90392.25
2022-10-27T06:11:36.907Z,90397.00
2022-10-27T06:14:03.706Z,90403.34
2022-10-27T06:16:30.499Z,90403.53
2022-10-27T06:18:57.350Z,90405.09
2022-10-27T06:21:24.149Z,90405.41
2022-10-27T06:23:51.264Z,90401.69
2022-10-27T06:26:18.303Z,90399.88
2022-10-27T06:28:45.073Z,90398.78
2022-10-27T06:31:11.924Z,90405.16
2022-10-27T06:33:38.646Z,90399.13
2022-10-27T06:36:05.641Z,90403.06
2022-10-27T06:38:32.448Z,90405.19
2022-10-27T06:40:59.224Z,90405.25
2022-10-27T06:43:25.971Z,90402.78
2022-10-27T06:45:53.356Z,90402.91
2022-10-27T06:48:20.137Z,90403.09
2022-10-27T06:50:46.948Z,90396.16
2022-10-27T06:53:13.972Z,90400.41
2022-10-27T06:55:40.727Z,90401.13
2022-10-27T06:58:07.437Z,90400.94
2022-10-27T07:00:34.325Z,90402.13
2022-10-27T07:03:06.448Z,90395.16
2022-10-27T07:05:33.228Z,90409.13
2022-10-27T07:08:00.138Z,90397.22
2022-10-27T07:10:26.985Z,90404.38
2022-10-27T07:13:01.922Z,90404.75
2022-10-27T07:15:31.172Z,90404.22
2022-10-27T07:18:01.034Z,90409.94
2022-10-27T07:20:30.431Z,90405.38
2022-10-27T07:22:59.934Z,90421.56
2022-10-27T07:25:28.409Z,90411.28
2022-10-27T07:27:55.815Z,90420.56
2022-10-27T07:30:25.410Z,90417.03
2022-10-27T07:32:52.178Z,90408.25
2022-10-27T07:35:19.024Z,90409.16
2022-10-27T07:37:47.053Z,90409.19
2022-10-27T07:40:16.350Z,90403.94
2022-10-27T07:42:47.929Z,90402.66
2022-10-27T07:45:16.512Z,90408.19
2022-10-27T07:47:48.928Z,90407.06
2022-10-27T07:50:17.798Z,90404.69
2022-10-27T07:52:46.894Z,90406.09
2022-10-27T07:55:15.559Z,90406.22
2022-10-27T07:57:43.768Z,90405.41
2022-10-27T08:00:17.004Z,90405.03
2022-10-27T08:02:44.680Z,90407.66
2022-10-27T08:05:11.789Z,90398.69
2022-10-27T08:07:39.180Z,90406.38
2022-10-27T08:10:06.256Z,90404.31
2022-10-27T08:12:33.184Z,90403.44
2022-10-27T08:14:59.919Z,90412.78
2022-10-27T08:17:26.809Z,90395.22
2022-10-27T08:19:53.524Z,90402.09
2022-10-27T08:22:20.347Z,90398.88
2022-10-27T08:24:47.159Z,90397.81
2022-10-27T08:27:13.876Z,90391.31
2022-10-27T08:29:40.647Z,90402.34
2022-10-27T08:32:07.407Z,90395.47
2022-10-27T08:34:34.141Z,90391.63
2022-10-27T08:37:00.888Z,90392.81
2022-10-27T08:39:27.748Z,90387.00
2022-10-27T08:42:38.791Z,90388.72
2022-10-27T08:45:11.099Z,90387.69
2022-10-27T08:47:38.067Z,90392.41
2022-10-27T08:50:09.776Z,90389.66
2022-10-27T08:52:47.875Z,90390.34
2022-10-27T08:55:14.669Z,90387.25
2022-10-27T08:57:53.254Z,90398.34
2022-10-27T09:00:20.278Z,90388.81
2022-10-27T09:02:56.151Z,90387.28
2022-10-27T09:05:41.022Z,90391.47
2022-10-27T09:08:20.119Z,90383.22
2022-10-27T09:11:16.830Z,90384.00
2022-10-27T09:14:11.455Z,90385.97
2022-10-27T09:16:47.926Z,90377.44
2022-10-27T09:19:30.276Z,90384.31
2022-10-27T09:21:57.736Z,90383.03
2022-10-27T09:24:28.460Z,90387.19
2022-10-27T09:26:58.813Z,90384.56
2022-10-27T09:29:25.615Z,90386.75
2022-10-27T09:32:03.249Z,90369.84
2022-10-27T09:34:39.803Z,90370.81
2022-10-27T09:37:14.372Z,90372.56
2022-10-27T09:39:46.941Z,90373.09
2022-10-27T09:42:14.266Z,90370.41
2022-10-27T09:44:51.898Z,90373.84
2022-10-27T09:47:20.312Z,90364.56
2022-10-27T09:49:47.781Z,90365.03
2022-10-27T09:52:42.929Z,90366.16
2022-10-27T09:55:10.695Z,90356.31
2022-10-27T09:57:40.804Z,90359.81
2022-10-27T10:00:09.574Z,90359.03
2022-10-27T10:02:45.708Z,90350.72
2022-10-27T10:05:23.134Z,90352.72
2022-10-27T10:07:50.937Z,90356.88
2022-10-27T10:10:28.712Z,90359.84
2022-10-27T10:13:02.679Z,90357.56
2022-10-27T10:15:33.213Z,90351.59
2022-10-27T10:18:01.935Z,90345.28
2022-10-27T10:23:27.455Z,90353.19
2022-10-27T10:25:57.800Z,90348.31
2022-10-27T10:29:05.718Z,90347.63
2022-10-27T10:31:32.658Z,90344.16
2022-10-27T10:34:05.480Z,90340.63
2022-10-27T10:36:38.016Z,90347.31
2022-10-27T10:39:24.763Z,90345.81
2022-10-27T10:42:24.028Z,90333.69
2022-10-27T10:45:10.342Z,90333.28
2022-10-27T10:47:37.928Z,90330.78
2022-10-27T10:50:12.596Z,90337.06
2022-10-27T10:52:40.209Z,90336.06
2022-10-27T10:55:17.133Z,90328.28
2022-10-27T10:57:45.689Z,90329.44
2022-10-27T11:00:16.928Z,90320.41
2022-10-27T11:02:56.694Z,90333.81
2022-10-27T11:05:31.197Z,90328.34
2022-10-27T11:07:58.767Z,90331.81
2022-10-27T11:10:30.856Z,90337.06
2022-10-27T11:13:24.004Z,90326.81
2022-10-27T11:16:03.447Z,90330.13
2022-10-27T11:18:42.227Z,90322.53
2022-10-27T11:21:31.831Z,90314.88
2022-10-27T11:24:27.901Z,90317.22
2022-10-27T11:26:59.102Z,90321.06
2022-10-27T11:29:32.199Z,90321.53
2022-10-27T11:32:14.095Z,90317.41
2022-10-27T11:34:51.803Z,90320.84
2022-10-27T11:37:28.957Z,90318.09
2022-10-27T11:40:01.501Z,90311.16
2022-10-27T11:42:36.640Z,90318.13
2022-10-27T11:45:25.121Z,90311.09
2022-10-27T11:48:00.123Z,90322.25
2022-10-27T11:50:56.756Z,90322.31
2022-10-27T11:53:23.758Z,90326.50
2022-10-27T11:56:24.449Z,90324.53
2022-10-27T11:58:54.294Z,90324.84
2022-10-27T12:01:39.598Z,90320.97
2022-10-27T12:07:30.501Z,90321.22
2022-10-27T12:16:17.451Z,90321.50
2022-10-27T12:18:44.171Z,90312.69
2022-10-27T12:21:20.512Z,90324.41
2022-10-27T12:24:11.692Z,90321.75
2022-10-27T12:26:41.343Z,90322.47
2022-10-27T12:29:09.618Z,90324.94
2022-10-27T12:31:44.468Z,90319.78
2022-10-27T12:34:15.307Z,90320.50
2022-10-27T12:37:09.483Z,90315.63
2022-10-27T12:40:09.602Z,90323.69
2022-10-27T12:43:15.376Z,90318.78
2022-10-27T12:45:44.914Z,90318.03
2022-10-27T12:48:55.977Z,90320.72
2022-10-27T12:51:28.337Z,90322.72
2022-10-27T12:54:25.881Z,90324.63
2022-10-27T12:57:22.369Z,90322.44
2022-10-27T13:00:07.885Z,90322.94
2022-10-27T13:02:46.242Z,90311.69
2022-10-27T13:05:13.079Z,90322.72
2022-10-27T13:07:57.812Z,90314.38
2022-10-27T13:10:31.130Z,90322.66
2022-10-27T13:13:17.464Z,90312.38
2022-10-27T13:16:03.170Z,90315.63
2022-10-27T13:18:32.533Z,90322.00
2022-10-27T13:21:13.192Z,90316.63
2022-10-27T13:24:16.847Z,90308.53
2022-10-27T13:27:09.217Z,90320.75
2022-10-27T13:29:47.982Z,90316.84
2022-10-27T13:32:20.787Z,90314.16
2022-10-27T13:35:13.435Z,90309.28
2022-10-27T13:37:55.829Z,90312.19
2022-10-27T13:40:22.762Z,90310.72
2022-10-27T13:42:57.128Z,90311.22
2022-10-27T13:45:26.982Z,90314.63
2022-10-27T13:48:09.029Z,90313.41
2022-10-27T13:50:38.027Z,90320.22
2022-10-27T13:53:16.805Z,90318.28
2022-10-27T13:55:48.160Z,90317.31
2022-10-27T13:58:21.091Z,90319.50
2022-10-27T14:01:14.810Z,90324.34
2022-10-27T14:03:44.747Z,90319.94
2022-10-27T14:06:14.761Z,90317.94
2022-10-27T14:08:44.257Z,90317.94
2022-10-27T14:11:18.478Z,90318.69
2022-10-27T14:13:49.401Z,90321.03
2022-10-27T14:16:23.937Z,90315.88
2022-10-27T14:19:14.826Z,90313.19
2022-10-27T14:21:47.614Z,90309.97
2022-10-27T14:24:48.447Z,90312.34
2022-10-27T14:27:18.126Z,90319.88
2022-10-27T14:29:45.627Z,90316.22
2022-10-27T14:32:21.704Z,90313.16
2022-10-27T14:34:49.855Z,90316.75
2022-10-27T14:37:35.639Z,90320.28
2022-10-27T14:40:02.993Z,90315.91
2022-10-27T14:42:33.002Z,90326.50
2022-10-27T14:45:03.432Z,90320.09
2022-10-27T14:47:32.551Z,90313.50
2022-10-27T14:50:06.456Z,90317.25
2022-10-27T14:52:45.887Z,90319.97
2022-10-27T14:55:39.953Z,90320.66
2022-10-27T14:58:20.175Z,90326.66
2022-10-27T15:00:51.043Z,90320.81
2022-10-27T15:03:17.843Z,90329.22
2022-10-27T15:05:48.384Z,90334.47
2022-10-27T15:08:21.567Z,90335.66
2022-10-27T15:10:50.808Z,90326.88
2022-10-27T15:13:20.443Z,90332.38
2022-10-27T15:15:48.994Z,90344.44
2022-10-27T15:18:27.872Z,90338.28
2022-10-27T15:20:55.949Z,90340.09
2022-10-27T15:23:23.273Z,90345.84
2022-10-27T15:25:56.863Z,90349.00
2022-10-27T15:28:29.721Z,90335.78
2022-10-27T15:30:56.844Z,90366.03
2022-10-27T15:33:28.179Z,90352.44
2022-10-27T15:35:58.170Z,90360.94
2022-10-27T15:38:27.605Z,90360.81
2022-10-27T15:41:06.510Z,90357.09
2022-10-27T15:43:33.565Z,90369.34
2022-10-27T15:46:22.226Z,90364.75
2022-10-27T15:49:11.122Z,90369.78
2022-10-27T15:51:53.286Z,90377.00
2022-10-27T15:54:34.946Z,90379.84
2022-10-27T15:57:05.763Z,90381.25
2022-10-27T15:59:33.962Z,90379.06
2022-10-27T16:02:22.112Z,90385.81
2022-10-27T16:04:50.107Z,90384.28
2022-10-27T16:07:16.983Z,90382.00
2022-10-27T16:09:47.883Z,90390.81
2022-10-27T16:12:30.275Z,90393.84
2022-10-27T16:15:00.230Z,90395.03
2022-10-27T16:17:49.962Z,90398.16
2022-10-27T16:20:26.966Z,90399.47
2022-10-27T16:22:54.685Z,90394.47
2022-10-27T16:25:28.705Z,90399.56
2022-10-27T16:27:55.551Z,90398.50
2022-10-27T16:30:23.595Z,90399.84
2022-10-27T16:33:04.330Z,90404.66
2022-10-27T16:35:31.269Z,90404.31
2022-10-27T16:37:58.761Z,90411.59
2022-10-27T16:40:25.662Z,90419.53
2022-10-27T16:42:55.404Z,90416.78
2022-10-27T16:45:22.615Z,90417.44
2022-10-27T16:47:50.782Z,90425.84
2022-10-27T16:50:22.630Z,90418.84
2022-10-27T16:52:56.421Z,90426.91
2022-10-27T16:55:23.704Z,90424.13
2022-10-27T16:57:50.629Z,90426.25
2022-10-27T17:00:17.667Z,90429.22
2022-10-27T17:02:44.477Z,90435.66
2022-10-27T17:05:11.236Z,90428.41
2022-10-27T17:07:47.014Z,90435.31
2022-10-27T17:10:16.667Z,90439.84
2022-10-27T17:12:43.844Z,90437.19
2022-10-27T17:15:13.663Z,90439.28
2022-10-27T17:17:40.340Z,90440.94
2022-10-27T17:20:07.731Z,90443.56
2022-10-27T17:22:35.062Z,90444.59
2022-10-27T17:25:02.039Z,90443.34
2022-10-27T17:27:28.805Z,90447.84
2022-10-27T17:29:56.040Z,90448.72
2022-10-27T17:32:22.712Z,90450.41
2022-10-27T17:34:49.483Z,90454.47
2022-10-27T17:37:16.275Z,90454.88
2022-10-27T17:39:43.168Z,90455.44
2022-10-27T17:42:09.947Z,90458.28
2022-10-27T17:44:36.629Z,90453.81
2022-10-27T17:47:03.390Z,90456.19
2022-10-27T17:49:30.266Z,90457.63
2022-10-27T17:51:57.070Z,90460.03
2022-10-27T17:54:23.781Z,90449.78
2022-10-27T17:56:50.647Z,90465.03
2022-10-27T18:11:25.821Z,90472.94
2022-10-27T18:13:58.299Z,90471.97
2022-10-27T18:16:30.326Z,90480.75
2022-10-27T18:18:59.645Z,90472.63
2022-10-27T18:21:28.441Z,90474.19
2022-10-27T18:23:57.904Z,90473.16
2022-10-27T18:26:26.128Z,90480.44
2022-10-27T18:28:52.904Z,90475.66
2022-10-27T18:31:25.376Z,90467.53
2022-10-27T18:33:54.123Z,90481.28
2022-10-27T18:36:23.305Z,90471.94
2022-10-27T18:38:54.292Z,90477.56
2022-10-27T18:41:21.957Z,90478.31
2022-10-27T18:43:51.833Z,90496.38
2022-10-27T18:46:20.011Z,90479.94
2022-10-27T18:48:51.460Z,90484.97
2022-10-27T18:51:18.376Z,90482.44
2022-10-27T18:53:46.427Z,90480.25
2022-10-27T18:56:18.473Z,90491.78
2022-10-27T18:58:45.184Z,90486.47
2022-10-27T19:01:14.520Z,90492.41
2022-10-27T19:03:42.509Z,90489.13
2022-10-27T19:06:12.067Z,90488.28
2022-10-27T19:08:38.929Z,90491.41
2022-10-27T19:11:08.414Z,90496.84
2022-10-27T19:13:35.669Z,90505.13
2022-10-27T19:16:03.815Z,90503.84
2022-10-27T19:18:31.100Z,90506.06
2022-10-27T19:21:02.894Z,90498.53
2022-10-27T19:23:30.437Z,90488.91
2022-10-27T19:26:15.290Z,90498.06
2022-10-27T19:28:43.458Z,90496.13
2022-10-27T19:31:16.114Z,90501.66
2022-10-27T19:33:44.907Z,90506.53
2022-10-27T19:36:14.554Z,90508.91
2022-10-27T19:38:41.553Z,90497.78
2022-10-27T19:41:16.532Z,90506.03
2022-10-27T19:43:47.059Z,90504.69
2022-10-27T19:46:19.113Z,90503.38
2022-10-27T19:48:53.751Z,90509.00
2022-10-27T19:51:23.559Z,90506.50
2022-10-27T19:53:51.114Z,90508.41
2022-10-27T19:56:18.476Z,90502.78
2022-10-27T19:58:50.303Z,90501.31
2022-10-27T20:01:22.774Z,90505.03
2022-10-27T20:03:49.706Z,90498.63
2022-10-27T20:06:17.316Z,90495.53
2022-10-27T20:08:45.465Z,90498.34
2022-10-27T20:11:13.529Z,90503.38
2022-10-27T20:13:40.987Z,90491.84
2022-10-27T20:16:09.395Z,90494.94
2022-10-27T20:18:36.205Z,90504.84
2022-10-27T20:21:03.051Z,90503.09
2022-10-27T20:23:30.161Z,90499.81
2022-10-27T20:26:24.344Z,90502.19
2022-10-27T20:28:48.577Z,90501.00
2022-10-27T20:31:15.274Z,90501.00
2022-10-27T20:33:41.976Z,90500.09
2022-10-27T20:36:11.146Z,90504.69
2022-10-27T20:38:39.117Z,90503.50
2022-10-27T20:41:07.498Z,90506.75
2022-10-27T20:43:35.336Z,90499.97
2022-10-27T20:46:03.814Z,90491.22
2022-10-27T20:48:30.902Z,90488.09
2022-10-27T20:51:03.551Z,90501.22
2022-10-27T20:53:32.549Z,90489.56
2022-10-27T20:55:59.377Z,90500.38
2022-10-27T20:58:26.852Z,90493.25
2022-10-27T21:00:54.025Z,90487.63
2022-10-27T21:03:21.174Z,90498.72
2022-10-27T21:05:47.990Z,90496.38
2022-10-27T21:08:14.728Z,90497.72
2022-10-27T21:10:41.522Z,90495.34
2022-10-27T21:13:12.726Z,90490.00
2022-10-27T21:15:40.481Z,90495.63
2022-10-27T21:18:09.267Z,90492.03
2022-10-27T21:20:37.595Z,90492.91
2022-10-27T21:23:04.929Z,90490.81
2022-10-27T21:25:31.654Z,90495.78
2022-10-27T21:27:58.593Z,90486.59
2022-10-27T21:30:26.059Z,90488.81
2022-10-27T21:32:54.975Z,90505.53
2022-10-27T21:35:23.523Z,90492.09
2022-10-27T21:37:50.462Z,90503.72
2022-10-27T21:40:17.286Z,90504.97
2022-10-27T21:42:44.127Z,90498.00
2022-10-27T21:45:12.002Z,90492.34
2022-10-27T21:47:39.804Z,90494.84
2022-10-27T21:50:09.939Z,90482.91
2022-10-27T21:52:37.567Z,90489.69
2022-10-27T21:55:05.624Z,90491.88
2022-10-27T21:57:32.587Z,90492.31
2022-10-27T21:59:59.311Z,90483.66
2022-10-27T22:02:26.050Z,90502.84
2022-10-27T22:04:52.932Z,90493.69
2022-10-27T22:07:19.644Z,90497.41
2022-10-27T22:09:46.396Z,90503.72
2022-10-27T22:12:13.167Z,90499.09
2022-10-27T22:14:40.014Z,90494.09
2022-10-27T22:17:06.848Z,90504.81
2022-10-27T22:19:33.659Z,90492.72
2022-10-27T22:22:00.607Z,90503.47
2022-10-27T22:24:27.408Z,90499.69
2022-10-27T22:26:54.162Z,90496.84
2022-10-27T22:29:20.881Z,90510.38
2022-10-27T22:31:47.596Z,90507.97
2022-10-27T22:34:14.398Z,90502.94
2022-10-27T22:36:41.147Z,90498.38
2022-10-27T22:39:08.008Z,90497.00
2022-10-27T22:41:35.764Z,90502.56
2022-10-27T22:44:02.504Z,90503.75
2022-10-27T22:46:31.518Z,90496.66
2022-10-27T22:48:58.374Z,90495.47
2022-10-27T22:51:28.005Z,90504.19
2022-10-27T22:53:56.575Z,90497.59
2022-10-27T22:56:29.003Z,90503.88
2022-10-27T22:58:58.555Z,90503.19
2022-10-27T23:01:28.700Z,90502.41
2022-10-27T23:03:57.847Z,90501.81
2022-10-27T23:06:27.145Z,90495.69
2022-10-27T23:08:59.937Z,90504.28
2022-10-27T23:11:30.373Z,90487.59
2022-10-27T23:13:57.083Z,90490.84
2022-10-27T23:16:24.033Z,90494.97
2022-10-27T23:18:50.742Z,90503.44
2022-10-27T23:21:19.977Z,90495.97
2022-10-27T23:23:46.835Z,90496.03
2022-10-27T23:26:18.410Z,90490.47
2022-10-27T23:28:48.876Z,90492.81
2022-10-27T23:31:15.596Z,90494.47
2022-10-27T23:33:42.382Z,90482.94
2022-10-27T23:36:10.551Z,90487.59
2022-10-27T23:38:37.520Z,90489.72
2022-10-27T23:41:04.667Z,90485.53
2022-10-27T23:43:31.463Z,90486.00
2022-10-27T23:45:59.880Z,90479.59
2022-10-27T23:48:26.622Z,90478.72
2022-10-27T23:50:53.445Z,90472.50
2022-10-27T23:53:20.150Z,90485.69
2022-10-27T23:55:53.083Z,90481.31
2022-10-27T23:58:19.992Z,90476.00
